Time;durP1;ratioP1;P1;durP2;ratioP2;P2;SDS_P1;SDS_P2;PMS_P1;PMS_P2;Temp;Humidity;BMP_temperature;BMP_pressure;BME280_temperature;BME280_humidity;BME280_pressure;Samples;Min_cycle;Max_cycle;Signal;HPM_P1;HPM_P2
2023/03/14 00:01:44;;;;;;;1.23;1.00;;;11.80;99.90;;;;;;5163830;28;20185;-50
2023/03/14 00:04:15;;;;;;;0.93;0.93;;;11.80;99.90;;;;;;5174681;28;20217;-48
2023/03/14 00:06:46;;;;;;;1.03;1.03;;;11.70;99.90;;;;;;5167676;28;20443;-47
2023/03/14 00:09:17;;;;;;;0.73;0.73;;;11.70;99.90;;;;;;5165396;28;20431;-47
2023/03/14 00:11:47;;;;;;;0.63;0.63;;;11.70;99.90;;;;;;5156434;28;20523;-47
2023/03/14 00:14:18;;;;;;;1.13;0.90;;;11.70;99.90;;;;;;5160018;28;20243;-47
2023/03/14 00:16:49;;;;;;;0.93;0.90;;;11.80;99.90;;;;;;5165856;28;20619;-47
2023/03/14 00:19:19;;;;;;;1.17;1.17;;;11.80;99.90;;;;;;5155166;28;20189;-47
2023/03/14 00:21:50;;;;;;;1.10;1.10;;;11.80;99.90;;;;;;5161922;28;20551;-47
2023/03/14 00:24:20;;;;;;;1.47;1.40;;;11.80;99.90;;;;;;5160108;28;20185;-47
2023/03/14 00:26:51;;;;;;;3.93;1.30;;;11.70;99.90;;;;;;5174458;28;20180;-47
2023/03/14 00:29:22;;;;;;;0.97;0.97;;;11.80;99.90;;;;;;5166790;28;20654;-45
2023/03/14 00:31:53;;;;;;;0.70;0.70;;;11.70;99.90;;;;;;5164925;28;20217;-46
2023/03/14 00:34:23;;;;;;;1.07;1.07;;;11.60;99.90;;;;;;5165196;28;20188;-46
2023/03/14 00:36:54;;;;;;;1.00;1.00;;;11.70;99.90;;;;;;5164174;28;20433;-47
2023/03/14 00:39:24;;;;;;;2.20;0.73;;;11.60;99.90;;;;;;5179790;28;20188;-49
2023/03/14 00:41:55;;;;;;;0.90;0.90;;;11.50;99.90;;;;;;5158588;28;20185;-47
2023/03/14 00:44:26;;;;;;;1.13;1.10;;;11.50;99.90;;;;;;5166184;28;20625;-47
2023/03/14 00:46:56;;;;;;;1.90;0.80;;;11.40;99.90;;;;;;5161393;28;20241;-46
2023/03/14 00:49:27;;;;;;;0.80;0.80;;;11.40;99.90;;;;;;5160092;28;20188;-47
2023/03/14 00:51:58;;;;;;;0.83;0.83;;;11.30;99.90;;;;;;5169857;28;20209;-47
2023/03/14 00:54:30;;;;;;;1.33;1.17;;;11.30;99.90;;;;;;5161021;28;20538;-46
2023/03/14 00:57:01;;;;;;;2.30;1.30;;;11.40;99.90;;;;;;5168736;28;20624;-47
2023/03/14 00:59:31;;;;;;;1.03;1.03;;;11.50;99.90;;;;;;5165689;28;20523;-46
2023/03/14 01:02:02;;;;;;;1.50;1.00;;;11.40;99.90;;;;;;5177217;28;20566;-46
2023/03/14 01:04:33;;;;;;;1.83;0.70;;;11.50;99.90;;;;;;5167452;28;20249;-48
2023/03/14 01:07:03;;;;;;;3.33;0.90;;;11.40;99.90;;;;;;5173174;28;20341;-47
2023/03/14 01:09:34;;;;;;;1.10;1.10;;;11.30;99.90;;;;;;5158706;28;20534;-46
2023/03/14 01:12:04;;;;;;;0.83;0.83;;;11.30;99.90;;;;;;5164980;28;20215;-45
2023/03/14 01:14:36;;;;;;;2.83;1.00;;;11.20;99.90;;;;;;5167984;28;20181;-46
2023/03/14 01:17:07;;;;;;;1.10;1.10;;;11.20;99.90;;;;;;5171876;28;20237;-47
2023/03/14 01:19:37;;;;;;;0.77;0.77;;;11.10;99.90;;;;;;5166604;28;20978;-46
2023/03/14 01:22:08;;;;;;;0.70;0.70;;;11.00;99.90;;;;;;5164489;28;20201;-47
2023/03/14 01:24:38;;;;;;;0.63;0.63;;;11.00;99.90;;;;;;5163131;28;20546;-47
2023/03/14 01:27:09;;;;;;;0.50;0.50;;;10.90;99.90;;;;;;5169440;28;20559;-45
2023/03/14 01:29:40;;;;;;;1.43;1.10;;;11.10;99.90;;;;;;5160560;28;20181;-47
2023/03/14 01:32:10;;;;;;;0.60;0.60;;;11.00;99.90;;;;;;5152364;28;20244;-47
2023/03/14 01:34:41;;;;;;;1.70;1.13;;;11.10;99.90;;;;;;5164659;28;20184;-46
2023/03/14 01:37:12;;;;;;;0.87;0.87;;;11.20;99.90;;;;;;5171694;28;20548;-47
2023/03/14 01:39:42;;;;;;;0.80;0.80;;;11.10;99.90;;;;;;5165168;28;20205;-45
2023/03/14 01:42:15;;;;;;;1.20;1.10;;;11.00;99.90;;;;;;5179548;28;20683;-46
2023/03/14 01:44:53;;;;;;;1.00;1.00;;;11.10;99.90;;;;;;5148535;28;20194;-49
2023/03/14 01:47:24;;;;;;;0.90;0.90;;;11.00;99.90;;;;;;5153078;28;20486;-48
2023/03/14 01:50:10;;;;;;;1.93;1.00;;;11.00;99.90;;;;;;5160182;28;20956;-45
2023/03/14 01:52:49;;;;;;;2.87;0.80;;;11.10;99.90;;;;;;5160034;28;20209;-46
2023/03/14 01:55:24;;;;;;;1.90;1.00;;;11.20;99.90;;;;;;5162280;28;20483;-47
2023/03/14 01:58:00;;;;;;;0.80;0.80;;;11.10;99.90;;;;;;5161694;28;20443;-47
2023/03/14 02:00:31;;;;;;;1.20;1.20;;;11.30;99.90;;;;;;5151869;28;20491;-46
2023/03/14 02:03:08;;;;;;;6.37;1.00;;;11.20;99.90;;;;;;5165054;28;20539;-46
2023/03/14 02:05:43;;;;;;;0.50;0.47;;;11.20;99.90;;;;;;5163512;28;20451;-47
2023/03/14 02:08:18;;;;;;;1.17;0.60;;;11.20;99.90;;;;;;5165756;28;20458;-46
2023/03/14 02:10:50;;;;;;;0.90;0.90;;;11.10;99.90;;;;;;5160894;28;20494;-48
2023/03/14 02:13:21;;;;;;;4.73;0.90;;;11.10;99.90;;;;;;5166973;28;20451;-46
2023/03/14 02:15:53;;;;;;;0.80;0.80;;;11.10;99.90;;;;;;5163259;28;20440;-46
2023/03/14 02:18:24;;;;;;;0.60;0.60;;;11.00;99.90;;;;;;5167984;28;20424;-46
2023/03/14 02:21:13;;;;;;;6.93;0.77;;;10.90;99.90;;;;;;5175341;28;20511;-45
2023/03/14 02:24:09;;;;;;;1.80;1.00;;;11.00;99.90;;;;;;5158281;28;20303;-48
2023/03/14 02:27:00;;;;;;;0.60;0.60;;;10.90;99.90;;;;;;5169359;28;20531;-47
2023/03/14 02:29:35;;;;;;;0.77;0.77;;;10.90;99.90;;;;;;5163171;28;20447;-45
2023/03/14 02:32:07;;;;;;;0.80;0.80;;;10.90;99.90;;;;;;5158874;28;20467;-47
2023/03/14 02:34:38;;;;;;;1.90;0.80;;;11.00;99.90;;;;;;5169243;28;20440;-46
2023/03/14 02:37:12;;;;;;;1.20;1.10;;;11.00;99.90;;;;;;5146944;28;21045;-46
2023/03/14 02:39:45;;;;;;;0.57;0.57;;;11.10;99.90;;;;;;5161047;28;20416;-47
2023/03/14 02:42:16;;;;;;;0.70;0.70;;;11.10;99.90;;;;;;5182629;28;20464;-46
2023/03/14 02:45:05;;;;;;;0.77;0.60;;;11.10;99.90;;;;;;5170110;28;20436;-47
2023/03/14 02:47:44;;;;;;;0.70;0.70;;;11.10;99.90;;;;;;5164986;28;20440;-47
2023/03/14 02:50:20;;;;;;;3.10;1.47;;;11.20;99.90;;;;;;5171254;28;20469;-48
2023/03/14 02:52:50;;;;;;;0.83;0.83;;;11.10;99.90;;;;;;5167128;28;20488;-47
2023/03/14 02:55:22;;;;;;;1.00;0.70;;;11.10;99.90;;;;;;5181177;28;20959;-46
2023/03/14 02:57:53;;;;;;;0.70;0.70;;;11.10;99.90;;;;;;5165959;28;20642;-47
2023/03/14 03:00:24;;;;;;;0.40;0.40;;;11.10;99.90;;;;;;5168294;28;20416;-47
2023/03/14 03:02:54;;;;;;;0.70;0.70;;;11.00;99.90;;;;;;5175793;28;20577;-46
2023/03/14 03:05:25;;;;;;;0.60;0.60;;;10.90;99.90;;;;;;5166889;28;20231;-47
2023/03/14 03:07:56;;;;;;;0.73;0.70;;;10.80;99.90;;;;;;5167452;28;20173;-46
2023/03/14 03:10:28;;;;;;;0.97;0.73;;;10.80;99.90;;;;;;5165633;28;20205;-46
2023/03/14 03:12:59;;;;;;;0.67;0.67;;;10.80;99.90;;;;;;5164975;28;20459;-46
2023/03/14 03:15:30;;;;;;;0.90;0.80;;;10.70;99.90;;;;;;5165586;28;20917;-50
2023/03/14 03:18:00;;;;;;;0.67;0.67;;;10.80;99.90;;;;;;5174791;28;20195;-46
2023/03/14 03:20:31;;;;;;;0.70;0.70;;;10.80;99.90;;;;;;5164490;28;20186;-47
2023/03/14 03:23:01;;;;;;;1.80;0.80;;;10.70;99.90;;;;;;5165487;28;20347;-46
2023/03/14 03:25:32;;;;;;;0.67;0.67;;;10.70;99.90;;;;;;5165963;28;20212;-45
2023/03/14 03:28:07;;;;;;;0.60;0.60;;;10.70;99.90;;;;;;5174431;28;20219;-47
2023/03/14 03:30:39;;;;;;;0.80;0.70;;;10.70;99.90;;;;;;5166447;28;20204;-50
2023/03/14 03:33:11;;;;;;;0.73;0.73;;;10.70;99.90;;;;;;5159820;28;20440;-45
2023/03/14 03:35:47;;;;;;;0.50;0.50;;;10.60;99.90;;;;;;5156936;28;20440;-46
2023/03/14 03:38:20;;;;;;;0.50;0.50;;;10.50;99.90;;;;;;5155615;28;20432;-45
2023/03/14 03:40:50;;;;;;;0.60;0.60;;;10.50;99.90;;;;;;5152797;28;20424;-46
2023/03/14 03:43:21;;;;;;;0.60;0.50;;;10.50;99.90;;;;;;5180810;23;20617;-54
2023/03/14 03:45:51;;;;;;;0.40;0.40;;;10.50;99.90;;;;;;5187560;28;20180;-53
2023/03/14 03:48:22;;;;;;;2.40;0.93;;;10.50;99.90;;;;;;5184375;28;20180;-55
2023/03/14 03:50:53;;;;;;;1.33;0.90;;;10.50;99.90;;;;;;5179026;28;20212;-53
2023/03/14 03:53:23;;;;;;;0.87;0.87;;;10.50;99.90;;;;;;5185544;28;20236;-54
2023/03/14 03:55:54;;;;;;;0.90;0.83;;;10.50;99.90;;;;;;5187787;28;20588;-55
2023/03/14 03:58:24;;;;;;;0.70;0.70;;;10.40;99.90;;;;;;5182224;28;20189;-54
2023/03/14 04:00:55;;;;;;;2.40;0.57;;;10.40;99.90;;;;;;5174114;28;20675;-54
2023/03/14 04:03:26;;;;;;;0.83;0.83;;;10.40;99.90;;;;;;5186596;28;20208;-54
2023/03/14 04:06:05;;;;;;;1.87;0.77;;;10.40;99.90;;;;;;5188512;28;20181;-54
2023/03/14 04:08:36;;;;;;;0.60;0.60;;;10.40;99.90;;;;;;5172114;28;20181;-54
2023/03/14 04:11:07;;;;;;;0.60;0.60;;;10.40;99.90;;;;;;5172587;28;20463;-55
2023/03/14 04:13:37;;;;;;;1.07;1.07;;;10.30;99.90;;;;;;5191087;28;20486;-55
2023/03/14 04:16:17;;;;;;;1.23;0.70;;;10.40;99.90;;;;;;5174838;28;20191;-55
2023/03/14 04:18:48;;;;;;;0.43;0.43;;;10.30;99.90;;;;;;5166956;28;20227;-55
2023/03/14 04:21:19;;;;;;;0.60;0.60;;;10.30;99.90;;;;;;5186515;28;20926;-54
2023/03/14 04:23:50;;;;;;;0.63;0.63;;;10.30;99.90;;;;;;5181082;28;20254;-53
2023/03/14 04:26:20;;;;;;;1.70;1.00;;;10.30;99.90;;;;;;5189570;28;20466;-54
2023/03/14 04:28:51;;;;;;;0.90;0.90;;;10.30;99.90;;;;;;5181608;28;20219;-54
2023/03/14 04:31:22;;;;;;;4.00;0.93;;;10.30;99.90;;;;;;5184335;28;20244;-55
2023/03/14 04:33:52;;;;;;;0.60;0.60;;;10.30;99.90;;;;;;5186312;28;20200;-54
2023/03/14 04:36:23;;;;;;;0.97;0.60;;;10.30;99.90;;;;;;5185170;28;20560;-55
2023/03/14 04:38:53;;;;;;;0.57;0.57;;;10.30;99.90;;;;;;5186183;28;20184;-54
2023/03/14 04:41:24;;;;;;;0.60;0.60;;;10.30;99.90;;;;;;5195107;28;20184;-54
2023/03/14 04:43:55;;;;;;;0.50;0.50;;;10.20;99.90;;;;;;5186489;28;20235;-56
2023/03/14 04:46:26;;;;;;;1.03;0.80;;;10.20;99.90;;;;;;5181278;28;20184;-55
2023/03/14 04:48:57;;;;;;;1.17;0.87;;;10.20;99.90;;;;;;5185396;28;20971;-54
2023/03/14 04:51:27;;;;;;;0.70;0.70;;;10.20;99.90;;;;;;5179931;28;20230;-54
2023/03/14 04:53:58;;;;;;;0.90;0.90;;;10.10;99.90;;;;;;5190626;28;20592;-55
2023/03/14 04:56:29;;;;;;;0.83;0.80;;;10.20;99.90;;;;;;5190778;28;20563;-55
2023/03/14 04:58:59;;;;;;;2.10;0.87;;;10.10;99.90;;;;;;5186185;28;20235;-55
2023/03/14 05:01:30;;;;;;;0.63;0.63;;;10.20;99.90;;;;;;5180341;28;20216;-54
2023/03/14 05:04:01;;;;;;;0.50;0.50;;;10.10;99.90;;;;;;5158029;28;20299;-56
2023/03/14 05:06:31;;;;;;;0.87;0.77;;;10.20;99.90;;;;;;5179399;28;20298;-56
2023/03/14 05:09:04;;;;;;;0.90;0.50;;;10.20;99.90;;;;;;5170465;28;20561;-54
2023/03/14 05:11:35;;;;;;;4.30;0.77;;;10.20;99.90;;;;;;5174123;28;20681;-54
2023/03/14 05:14:06;;;;;;;0.60;0.60;;;10.20;99.90;;;;;;5185716;28;20495;-53
2023/03/14 05:16:36;;;;;;;0.67;0.67;;;10.20;99.90;;;;;;5179899;28;20641;-54
2023/03/14 05:19:07;;;;;;;1.10;1.10;;;10.20;99.90;;;;;;5192586;28;20665;-53
2023/03/14 05:21:38;;;;;;;1.53;1.43;;;10.30;99.90;;;;;;5173473;28;20731;-54
2023/03/14 05:24:08;;;;;;;0.80;0.80;;;10.30;99.90;;;;;;5173727;28;20346;-54
2023/03/14 05:26:39;;;;;;;0.90;0.87;;;10.30;99.90;;;;;;5177422;28;20603;-52
2023/03/14 05:29:09;;;;;;;4.57;1.47;;;10.20;99.90;;;;;;5177688;28;20200;-53
2023/03/14 05:31:40;;;;;;;2.67;0.80;;;10.30;99.90;;;;;;5191317;28;20213;-54
2023/03/14 05:34:11;;;;;;;0.70;0.70;;;10.20;99.90;;;;;;5180695;28;20212;-54
2023/03/14 05:36:41;;;;;;;0.87;0.87;;;10.30;99.90;;;;;;5170916;28;20217;-56
2023/03/14 05:39:12;;;;;;;1.00;1.00;;;10.30;99.90;;;;;;5173894;28;20667;-54
2023/03/14 05:41:43;;;;;;;0.90;0.87;;;10.20;99.90;;;;;;5199512;28;20191;-53
2023/03/14 05:44:13;;;;;;;4.70;1.20;;;10.30;99.90;;;;;;5186821;28;20634;-52
2023/03/14 05:46:44;;;;;;;0.70;0.70;;;10.30;99.90;;;;;;5193954;28;20211;-51
2023/03/14 05:49:14;;;;;;;1.53;0.97;;;10.30;99.90;;;;;;5191397;28;20188;-51
2023/03/14 05:51:45;;;;;;;0.83;0.77;;;10.30;99.90;;;;;;5189790;28;20239;-52
2023/03/14 05:54:16;;;;;;;2.10;0.93;;;10.10;99.90;;;;;;5189973;28;20231;-51
2023/03/14 05:56:46;;;;;;;2.40;0.90;;;10.30;99.90;;;;;;5183036;28;20250;-51
2023/03/14 05:59:17;;;;;;;3.27;0.77;;;10.30;99.90;;;;;;5185754;28;20239;-52
2023/03/14 06:01:47;;;;;;;1.00;1.00;;;10.30;99.90;;;;;;5175385;28;20185;-51
2023/03/14 06:04:18;;;;;;;0.70;0.70;;;10.30;99.90;;;;;;5193082;28;20207;-52
2023/03/14 06:06:49;;;;;;;4.90;0.90;;;10.40;99.90;;;;;;5189467;28;20188;-52
2023/03/14 06:09:22;;;;;;;1.60;0.60;;;10.50;99.90;;;;;;5178463;28;20243;-52
2023/03/14 06:11:52;;;;;;;0.87;0.87;;;10.50;99.90;;;;;;5190764;28;20227;-52
2023/03/14 06:14:23;;;;;;;1.80;0.93;;;10.60;99.90;;;;;;5208107;28;20461;-51
2023/03/14 06:16:54;;;;;;;0.40;0.40;;;10.60;99.90;;;;;;5191471;28;20560;-54
2023/03/14 06:19:25;;;;;;;1.57;0.97;;;10.70;99.90;;;;;;5183165;28;20281;-52
2023/03/14 06:21:56;;;;;;;3.43;1.07;;;10.70;99.90;;;;;;5191959;28;20284;-52
2023/03/14 06:24:26;;;;;;;3.03;1.10;;;10.80;99.90;;;;;;5186212;28;20592;-53
2023/03/14 06:26:57;;;;;;;2.97;0.80;;;10.80;99.90;;;;;;5199069;28;20215;-53
2023/03/14 06:29:28;;;;;;;5.13;0.90;;;10.90;99.90;;;;;;5195543;28;20262;-53
2023/03/14 06:31:59;;;;;;;1.00;0.90;;;10.90;99.90;;;;;;5180559;28;20222;-51
2023/03/14 06:34:29;;;;;;;2.40;0.80;;;10.90;99.90;;;;;;5195970;28;20459;-52
2023/03/14 06:37:00;;;;;;;1.37;1.00;;;11.00;99.90;;;;;;5187955;28;20652;-52
2023/03/14 06:39:31;;;;;;;0.63;0.63;;;11.10;99.90;;;;;;5186969;28;20188;-52
2023/03/14 06:42:02;;;;;;;1.10;0.70;;;11.20;99.90;;;;;;5182213;28;20189;-52
2023/03/14 06:44:32;;;;;;;2.70;1.33;;;11.30;99.90;;;;;;5170206;28;20479;-53
2023/03/14 06:47:03;;;;;;;4.93;1.30;;;11.40;99.90;;;;;;5176964;28;20196;-53
2023/03/14 06:49:34;;;;;;;3.13;1.23;;;11.60;99.90;;;;;;5175061;28;20189;-51
2023/03/14 06:52:04;;;;;;;0.90;0.80;;;11.70;99.90;;;;;;5180043;28;20274;-56
2023/03/14 06:54:35;;;;;;;1.30;1.00;;;11.80;99.90;;;;;;5174835;28;20300;-52
2023/03/14 06:57:05;;;;;;;2.27;1.30;;;11.90;99.90;;;;;;5178047;28;20723;-52
2023/03/14 06:59:36;;;;;;;2.20;0.90;;;12.00;99.90;;;;;;5167380;28;20226;-55
2023/03/14 07:02:12;;;;;;;5.53;0.80;;;12.30;99.90;;;;;;5170936;28;20192;-53
2023/03/14 07:04:42;;;;;;;1.27;1.27;;;12.80;99.90;;;;;;5183668;28;20180;-52
2023/03/14 07:07:13;;;;;;;1.30;1.20;;;13.30;99.90;;;;;;5175431;28;20518;-53
2023/03/14 07:09:44;;;;;;;5.30;1.33;;;13.60;99.90;;;;;;5178984;28;20180;-51
2023/03/14 07:12:14;;;;;;;4.03;1.50;;;14.10;99.90;;;;;;5174047;28;20244;-52
2023/03/14 07:14:45;;;;;;;8.03;1.63;;;14.20;99.90;;;;;;5167184;28;20181;-52
2023/03/14 07:17:15;;;;;;;1.77;1.20;;;14.10;99.90;;;;;;5172441;28;20256;-53
2023/03/14 07:19:46;;;;;;;2.03;1.13;;;13.80;99.90;;;;;;5168332;28;20267;-53
2023/03/14 07:22:17;;;;;;;4.13;1.10;;;13.70;99.90;;;;;;5183768;28;20188;-51
2023/03/14 07:24:47;;;;;;;4.40;3.77;;;13.50;99.90;;;;;;5176961;28;20250;-52
2023/03/14 07:27:18;;;;;;;8.63;4.10;;;13.40;99.90;;;;;;5172573;28;20711;-52
2023/03/14 07:29:48;;;;;;;7.07;3.87;;;13.50;99.90;;;;;;5176921;28;20183;-53
2023/03/14 07:32:19;;;;;;;3.60;3.40;;;13.90;99.90;;;;;;5177031;28;20708;-54
2023/03/14 07:34:50;;;;;;;3.43;2.17;;;14.40;99.90;;;;;;5177049;28;20215;-52
2023/03/14 07:37:20;;;;;;;3.13;2.87;;;15.20;99.90;;;;;;5182593;28;20176;-53
2023/03/14 07:39:51;;;;;;;5.77;2.93;;;16.10;99.90;;;;;;5185423;28;20184;-54
2023/03/14 07:42:21;;;;;;;2.80;1.60;;;16.20;99.90;;;;;;5177721;28;20176;-51
2023/03/14 07:44:52;;;;;;;1.30;1.20;;;15.70;99.90;;;;;;5174263;28;20196;-52
2023/03/14 07:47:23;;;;;;;2.00;1.27;;;15.40;99.90;;;;;;5174045;28;20193;-53
2023/03/14 07:49:53;;;;;;;4.83;1.60;;;15.60;99.90;;;;;;5167747;28;20177;-51
2023/03/14 07:52:24;;;;;;;1.73;1.63;;;15.60;99.90;;;;;;5171741;28;20290;-54
2023/03/14 07:54:55;;;;;;;11.83;2.37;;;15.70;99.90;;;;;;5179195;28;20184;-54
2023/03/14 07:57:25;;;;;;;5.63;1.83;;;15.80;99.90;;;;;;5176410;28;20184;-54
2023/03/14 07:59:56;;;;;;;6.40;1.80;;;16.00;99.70;;;;;;5178007;28;20189;-54
2023/03/14 08:02:27;;;;;;;4.63;2.77;;;16.20;99.50;;;;;;5179996;28;20196;-55
2023/03/14 08:04:57;;;;;;;4.67;2.00;;;16.70;97.60;;;;;;5178060;28;20196;-53
2023/03/14 08:07:28;;;;;;;1.70;1.40;;;17.30;94.80;;;;;;5176409;28;20188;-56
2023/03/14 08:09:58;;;;;;;2.63;2.03;;;17.60;93.50;;;;;;5181073;28;20696;-54
2023/03/14 08:12:29;;;;;;;4.50;2.13;;;17.50;91.70;;;;;;5177545;28;20212;-56
2023/03/14 08:15:00;;;;;;;4.67;1.80;;;17.10;92.00;;;;;;5175004;28;20231;-54
2023/03/14 08:17:30;;;;;;;2.20;1.53;;;16.40;93.10;;;;;;5178597;28;20188;-52
2023/03/14 08:20:01;;;;;;;6.10;1.77;;;15.60;95.90;;;;;;5174221;28;20185;-53
2023/03/14 08:22:32;;;;;;;4.33;2.60;;;15.20;98.50;;;;;;5170389;28;20232;-55
2023/03/14 08:25:03;;;;;;;2.97;1.73;;;15.10;99.90;;;;;;5172039;28;20196;-56
2023/03/14 08:27:34;;;;;;;7.90;1.70;;;14.80;99.90;;;;;;5166432;28;20188;-55
2023/03/14 08:30:06;;;;;;;4.53;1.60;;;14.70;99.90;;;;;;5165711;28;20458;-55
2023/03/14 08:32:37;;;;;;;3.97;1.07;;;14.60;99.90;;;;;;5176447;28;20208;-55
2023/03/14 08:35:10;;;;;;;3.60;2.73;;;14.40;99.90;;;;;;5171429;28;20443;-52
2023/03/14 08:37:41;;;;;;;6.53;1.57;;;14.20;99.90;;;;;;5176146;28;21034;-53
2023/03/14 08:40:12;;;;;;;2.03;1.43;;;14.00;99.90;;;;;;5170372;28;20518;-57
2023/03/14 08:42:43;;;;;;;2.40;1.83;;;13.90;99.90;;;;;;5173494;28;20223;-52
2023/03/14 08:45:16;;;;;;;6.03;1.83;;;13.80;99.90;;;;;;5172261;28;20443;-54
2023/03/14 08:47:47;;;;;;;3.10;2.60;;;13.70;99.90;;;;;;5170486;28;20436;-54
2023/03/14 08:50:18;;;;;;;2.13;1.50;;;13.60;99.90;;;;;;5169440;28;20438;-52
2023/03/14 08:52:48;;;;;;;3.17;1.90;;;13.50;99.90;;;;;;5170516;28;20460;-51
2023/03/14 08:55:19;;;;;;;1.33;0.87;;;13.50;99.90;;;;;;5177143;28;20192;-50
2023/03/14 08:57:50;;;;;;;5.97;1.70;;;13.40;99.90;;;;;;5172494;28;20187;-52
2023/03/14 09:00:21;;;;;;;3.60;1.47;;;13.30;99.90;;;;;;5175663;28;20203;-52
2023/03/14 09:02:51;;;;;;;2.70;1.73;;;13.10;99.90;;;;;;5169935;28;20192;-53
2023/03/14 09:05:22;;;;;;;3.17;2.10;;;13.00;99.90;;;;;;5167908;28;20187;-52
2023/03/14 09:07:52;;;;;;;2.33;1.97;;;13.10;99.90;;;;;;5181648;28;20180;-51
2023/03/14 09:10:23;;;;;;;2.23;2.03;;;13.00;99.90;;;;;;5175400;28;20208;-52
2023/03/14 09:12:54;;;;;;;2.73;1.33;;;13.10;99.90;;;;;;5177585;28;20193;-52
2023/03/14 09:15:24;;;;;;;2.60;1.20;;;13.20;99.90;;;;;;5176750;28;20187;-51
2023/03/14 09:17:55;;;;;;;2.63;1.00;;;13.50;99.90;;;;;;5180433;28;20640;-51
2023/03/14 09:20:26;;;;;;;1.27;1.13;;;13.90;99.90;;;;;;5175384;28;20555;-52
2023/03/14 09:22:56;;;;;;;3.37;1.67;;;14.40;99.90;;;;;;5171194;28;20232;-51
2023/03/14 09:25:27;;;;;;;11.07;2.00;;;14.60;99.90;;;;;;5185082;28;20192;-52
2023/03/14 09:27:57;;;;;;;6.27;1.20;;;14.60;99.90;;;;;;5177553;28;20181;-54
2023/03/14 09:30:28;;;;;;;3.17;1.97;;;14.60;99.90;;;;;;5171360;28;20212;-51
2023/03/14 09:32:59;;;;;;;1.90;1.30;;;14.50;99.90;;;;;;5181001;28;20516;-52
2023/03/14 09:35:29;;;;;;;1.30;1.20;;;14.40;99.90;;;;;;5176905;28;20180;-51
2023/03/14 09:38:00;;;;;;;2.80;1.63;;;14.40;99.90;;;;;;5176293;28;20184;-52
2023/03/14 09:40:34;;;;;;;2.57;1.40;;;14.40;99.90;;;;;;5173379;28;20545;-53
2023/03/14 09:43:05;;;;;;;2.70;1.30;;;14.50;99.90;;;;;;5184304;23;20323;-53
2023/03/14 09:45:40;;;;;;;2.17;1.23;;;14.70;99.90;;;;;;5168059;28;20428;-50
2023/03/14 09:48:21;;;;;;;2.47;1.63;;;14.90;99.90;;;;;;5163846;28;20423;-52
2023/03/14 09:50:54;;;;;;;5.90;1.70;;;15.30;99.90;;;;;;5164254;28;20455;-53
2023/03/14 09:53:47;;;;;;;3.87;1.20;;;15.50;99.90;;;;;;5156727;28;20653;-47
2023/03/14 09:56:25;;;;;;;10.60;2.33;;;15.40;99.90;;;;;;5165375;28;20609;-46
2023/03/14 09:58:59;;;;;;;3.27;1.00;;;15.20;99.90;;;;;;5163634;28;20471;-47
2023/03/14 10:01:32;;;;;;;1.43;0.97;;;15.00;99.90;;;;;;5166580;28;20896;-48
2023/03/14 10:04:10;;;;;;;4.43;1.10;;;14.80;99.90;;;;;;5151575;28;20561;-45
2023/03/14 10:06:40;;;;;;;1.23;1.23;;;14.80;99.90;;;;;;5184718;28;20439;-47
2023/03/14 10:09:25;;;;;;;3.17;1.57;;;14.40;99.90;;;;;;5148665;28;20505;-46
2023/03/14 10:11:59;;;;;;;1.57;1.00;;;14.30;99.90;;;;;;5166881;28;20205;-49
2023/03/14 10:14:33;;;;;;;5.57;1.20;;;14.20;99.90;;;;;;5154437;28;20535;-46
2023/03/14 10:17:07;;;;;;;2.17;1.20;;;14.30;99.90;;;;;;5165204;28;20476;-47
2023/03/14 10:19:54;;;;;;;0.80;0.80;;;14.30;99.90;;;;;;5165746;28;20768;-51
2023/03/14 10:22:31;;;;;;;1.57;1.17;;;14.20;99.90;;;;;;5162745;28;20439;-46
2023/03/14 10:25:29;;;;;;;2.73;1.30;;;14.20;99.90;;;;;;5161527;28;20474;-47
2023/03/14 10:28:00;;;;;;;5.30;2.30;;;14.20;99.90;;;;;;5179277;28;20788;-49
2023/03/14 10:30:34;;;;;;;2.50;1.60;;;14.30;99.90;;;;;;5161727;28;20870;-48
2023/03/14 10:33:29;;;;;;;4.40;1.40;;;14.30;99.90;;;;;;5158679;28;20479;-47
2023/03/14 10:36:14;;;;;;;1.90;1.43;;;14.40;99.90;;;;;;5160509;28;20966;-51
2023/03/14 10:38:45;;;;;;;2.83;1.73;;;14.60;99.90;;;;;;5162502;28;20436;-49
2023/03/14 10:41:33;;;;;;;9.03;1.47;;;14.40;99.90;;;;;;5163506;28;20445;-47
2023/03/14 10:44:05;;;;;;;3.23;1.40;;;14.30;99.90;;;;;;5160492;28;20221;-46
2023/03/14 10:46:35;;;;;;;1.07;1.07;;;14.20;99.90;;;;;;5159043;28;20958;-47
2023/03/14 10:49:06;;;;;;;2.97;1.27;;;14.10;99.90;;;;;;5165782;28;20443;-46
2023/03/14 10:51:37;;;;;;;1.73;0.80;;;14.10;99.90;;;;;;5160528;28;20271;-51
2023/03/14 10:54:19;;;;;;;4.73;1.30;;;14.10;99.90;;;;;;5164130;28;20295;-52
2023/03/14 10:56:58;;;;;;;1.20;1.10;;;14.10;99.90;;;;;;5159810;28;20251;-47
2023/03/14 10:59:38;;;;;;;1.87;1.07;;;14.00;99.90;;;;;;5157159;28;20446;-49
2023/03/14 11:02:37;;;;;;;1.10;0.97;;;14.00;99.90;;;;;;5165865;28;20854;-47
2023/03/14 11:05:27;;;;;;;1.53;1.33;;;13.90;99.90;;;;;;5166691;28;20959;-47
2023/03/14 11:08:06;;;;;;;2.20;1.30;;;13.90;99.90;;;;;;5163010;28;20545;-51
2023/03/14 11:10:44;;;;;;;1.23;0.90;;;14.00;99.90;;;;;;5169727;28;20532;-48
2023/03/14 11:13:27;;;;;;;1.77;1.67;;;14.10;99.90;;;;;;5162659;28;20506;-48
2023/03/14 11:16:05;;;;;;;2.37;1.43;;;14.00;99.90;;;;;;5162802;28;20444;-47
2023/03/14 11:18:41;;;;;;;5.00;1.60;;;14.10;99.90;;;;;;5163190;28;20435;-47
2023/03/14 11:21:20;;;;;;;3.80;1.80;;;14.30;99.90;;;;;;5162679;28;20490;-47
2023/03/14 11:24:08;;;;;;;2.97;1.70;;;14.20;99.90;;;;;;5151591;28;20452;-47
2023/03/14 11:27:16;;;;;;;1.00;1.00;;;14.10;99.90;;;;;;5163635;28;20436;-48
2023/03/14 11:29:56;;;;;;;3.70;1.70;;;14.20;99.90;;;;;;5160615;28;20439;-49
2023/03/14 11:33:03;;;;;;;7.07;1.47;;;14.20;99.90;;;;;;5157248;28;20471;-47
2023/03/14 11:35:45;;;;;;;2.77;1.13;;;14.20;99.90;;;;;;5173306;28;20497;-47
2023/03/14 11:38:29;;;;;;;4.03;2.20;;;14.20;99.90;;;;;;5162339;28;20467;-47
2023/03/14 11:41:00;;;;;;;1.00;0.97;;;14.30;99.90;;;;;;5159823;28;21022;-48
2023/03/14 11:43:42;;;;;;;1.47;1.10;;;14.10;99.90;;;;;;5166239;28;21020;-47
2023/03/14 11:46:38;;;;;;;2.83;0.97;;;14.10;99.90;;;;;;5157802;28;21769;-55
2023/03/14 11:49:18;;;;;;;2.80;1.20;;;14.20;99.90;;;;;;5164734;28;20528;-46
2023/03/14 11:51:55;;;;;;;2.93;1.27;;;14.30;99.90;;;;;;5162087;28;20547;-48
2023/03/14 11:54:49;;;;;;;6.50;1.13;;;14.40;99.90;;;;;;5160107;28;20482;-51
2023/03/14 11:57:21;;;;;;;1.60;1.23;;;14.40;99.90;;;;;;5164824;28;20471;-47
2023/03/14 11:59:57;;;;;;;3.03;1.10;;;14.60;99.90;;;;;;5161381;28;20799;-45
2023/03/14 12:02:41;;;;;;;0.80;0.80;;;14.70;99.90;;;;;;5164423;28;20523;-47
2023/03/14 12:05:50;;;;;;;3.20;1.40;;;14.80;99.90;;;;;;5171743;28;20480;-47
2023/03/14 12:08:44;;;;;;;1.70;1.17;;;14.90;99.90;;;;;;5151300;28;20449;-47
2023/03/14 12:11:30;;;;;;;3.87;1.43;;;15.00;99.90;;;;;;5172624;28;20464;-50
2023/03/14 12:14:01;;;;;;;4.73;1.33;;;15.20;99.90;;;;;;5155423;28;20468;-50
2023/03/14 12:16:38;;;;;;;1.60;1.30;;;15.30;99.90;;;;;;5159826;28;20522;-46
2023/03/14 12:19:26;;;;;;;0.80;0.73;;;15.30;99.90;;;;;;5166133;28;20486;-46
2023/03/14 12:22:24;;;;;;;0.60;0.60;;;15.30;99.90;;;;;;5164193;28;20442;-49
2023/03/14 12:25:04;;;;;;;1.87;0.80;;;15.30;99.90;;;;;;5170318;28;20436;-45
2023/03/14 12:27:47;;;;;;;1.07;0.87;;;15.10;99.90;;;;;;5162345;28;20675;-46
2023/03/14 12:30:27;;;;;;;4.57;1.70;;;15.00;99.90;;;;;;5159281;28;20436;-48
2023/03/14 12:33:10;;;;;;;3.90;1.60;;;15.00;99.90;;;;;;5162290;28;20673;-46
2023/03/14 12:35:49;;;;;;;1.80;1.10;;;14.90;99.90;;;;;;5157062;28;20435;-47
2023/03/14 12:38:57;;;;;;;3.63;1.83;;;15.00;99.90;;;;;;5162566;28;20468;-54
2023/03/14 12:41:40;;;;;;;0.97;0.97;;;15.00;99.90;;;;;;5159751;28;20499;-45
2023/03/14 12:44:29;;;;;;;1.67;1.00;;;14.90;99.90;;;;;;5123450;28;1105893;-47
2023/03/14 12:47:17;;;;;;;1.40;1.30;;;15.00;99.90;;;;;;5162594;28;20181;-47
2023/03/14 12:49:55;;;;;;;5.33;1.00;;;15.10;99.90;;;;;;5158328;28;20449;-50
2023/03/14 12:52:33;;;;;;;2.37;1.17;;;15.10;99.90;;;;;;5175096;28;20478;-53
2023/03/14 12:55:18;;;;;;;3.60;0.93;;;15.10;99.90;;;;;;5155881;28;20436;-48
2023/03/14 12:57:59;;;;;;;3.40;1.67;;;15.00;99.90;;;;;;5164115;28;20808;-47
2023/03/14 13:00:35;;;;;;;1.20;0.80;;;15.10;99.90;;;;;;5161166;28;20533;-47
2023/03/14 13:03:15;;;;;;;2.10;0.67;;;15.10;99.90;;;;;;5158943;28;20483;-47
2023/03/14 13:05:57;;;;;;;1.03;1.03;;;15.40;99.90;;;;;;5163576;28;20455;-46
2023/03/14 13:08:45;;;;;;;7.10;1.60;;;15.30;99.90;;;;;;5163102;28;20448;-47
2023/03/14 13:11:19;;;;;;;5.50;1.87;;;15.00;99.90;;;;;;5160832;28;20917;-52
2023/03/14 13:13:56;;;;;;;0.93;0.93;;;14.50;99.90;;;;;;5162957;28;20506;-48
2023/03/14 13:16:28;;;;;;;1.17;0.70;;;13.80;99.90;;;;;;5169124;28;20439;-47
2023/03/14 13:19:11;;;;;;;1.83;0.70;;;13.30;99.90;;;;;;5167903;28;20478;-51
2023/03/14 13:21:41;;;;;;;2.10;1.10;;;13.00;99.90;;;;;;5164899;28;20431;-45